sensor_id;sensor_type;location;lat;lon;timestamp;temperature;humidity
6822;DHT22;3449;48.728;8.968;2023-04-25T00:01:39;7.30;99.90
6822;DHT22;3449;48.728;8.968;2023-04-25T00:04:07;7.30;99.90
6822;DHT22;3449;48.728;8.968;2023-04-25T00:06:35;7.30;99.90
6822;DHT22;3449;48.728;8.968;2023-04-25T00:09:02;7.30;99.90
6822;DHT22;3449;48.728;8.968;2023-04-25T00:11:32;7.30;99.90
6822;DHT22;3449;48.728;8.968;2023-04-25T00:13:59;7.30;99.90
6822;DHT22;3449;48.728;8.968;2023-04-25T00:16:27;7.30;99.90
6822;DHT22;3449;48.728;8.968;2023-04-25T00:18:55;7.30;99.90
6822;DHT22;3449;48.728;8.968;2023-04-25T00:21:22;7.20;99.90
6822;DHT22;3449;48.728;8.968;2023-04-25T00:23:52;7.20;99.90
6822;DHT22;3449;48.728;8.968;2023-04-25T00:26:19;7.20;99.90
6822;DHT22;3449;48.728;8.968;2023-04-25T00:28:47;7.20;99.90
6822;DHT22;3449;48.728;8.968;2023-04-25T00:31:14;7.20;99.90
6822;DHT22;3449;48.728;8.968;2023-04-25T00:33:41;7.20;99.90
6822;DHT22;3449;48.728;8.968;2023-04-25T00:36:08;7.20;99.90
6822;DHT22;3449;48.728;8.968;2023-04-25T00:38:35;7.30;99.90
6822;DHT22;3449;48.728;8.968;2023-04-25T00:41:05;7.20;99.90
6822;DHT22;3449;48.728;8.968;2023-04-25T00:43:33;7.20;99.90
6822;DHT22;3449;48.728;8.968;2023-04-25T00:46:00;7.30;99.90
6822;DHT22;3449;48.728;8.968;2023-04-25T00:48:27;7.20;99.90
6822;DHT22;3449;48.728;8.968;2023-04-25T00:50:56;7.20;99.90
6822;DHT22;3449;48.728;8.968;2023-04-25T00:53:25;7.20;99.90
6822;DHT22;3449;48.728;8.968;2023-04-25T00:55:53;7.20;99.90
6822;DHT22;3449;48.728;8.968;2023-04-25T00:58:22;7.20;99.90
6822;DHT22;3449;48.728;8.968;2023-04-25T01:00:50;7.30;99.90
6822;DHT22;3449;48.728;8.968;2023-04-25T01:03:18;7.20;99.90
6822;DHT22;3449;48.728;8.968;2023-04-25T01:05:46;7.20;99.90
6822;DHT22;3449;48.728;8.968;2023-04-25T01:08:13;7.20;99.90
6822;DHT22;3449;48.728;8.968;2023-04-25T01:10:40;7.20;99.90
6822;DHT22;3449;48.728;8.968;2023-04-25T01:13:07;7.20;99.90
6822;DHT22;3449;48.728;8.968;2023-04-25T01:15:36;7.20;99.90
6822;DHT22;3449;48.728;8.968;2023-04-25T01:18:05;7.20;99.90
6822;DHT22;3449;48.728;8.968;2023-04-25T01:20:33;7.20;99.90
6822;DHT22;3449;48.728;8.968;2023-04-25T01:23:02;7.20;99.90
6822;DHT22;3449;48.728;8.968;2023-04-25T01:25:29;7.10;99.90
6822;DHT22;3449;48.728;8.968;2023-04-25T01:27:57;7.10;99.90
6822;DHT22;3449;48.728;8.968;2023-04-25T01:30:25;7.10;99.90
6822;DHT22;3449;48.728;8.968;2023-04-25T01:32:54;7.10;99.90
6822;DHT22;3449;48.728;8.968;2023-04-25T01:35:22;7.10;99.90
6822;DHT22;3449;48.728;8.968;2023-04-25T01:37:50;7.00;99.90
6822;DHT22;3449;48.728;8.968;2023-04-25T01:40:20;6.90;99.90
6822;DHT22;3449;48.728;8.968;2023-04-25T01:42:48;6.90;99.90
6822;DHT22;3449;48.728;8.968;2023-04-25T01:45:14;6.90;99.90
6822;DHT22;3449;48.728;8.968;2023-04-25T01:47:41;6.90;99.90
6822;DHT22;3449;48.728;8.968;2023-04-25T01:50:12;6.80;99.90
6822;DHT22;3449;48.728;8.968;2023-04-25T01:52:39;6.80;99.90
6822;DHT22;3449;48.728;8.968;2023-04-25T01:55:07;6.80;99.90
6822;DHT22;3449;48.728;8.968;2023-04-25T01:57:35;6.80;99.90
6822;DHT22;3449;48.728;8.968;2023-04-25T02:00:06;6.70;99.90
6822;DHT22;3449;48.728;8.968;2023-04-25T02:02:34;6.70;99.90
6822;DHT22;3449;48.728;8.968;2023-04-25T02:05:01;6.70;99.90
6822;DHT22;3449;48.728;8.968;2023-04-25T02:07:28;6.60;99.90
6822;DHT22;3449;48.728;8.968;2023-04-25T02:09:55;6.60;99.90
6822;DHT22;3449;48.728;8.968;2023-04-25T02:12:22;6.60;99.90
6822;DHT22;3449;48.728;8.968;2023-04-25T02:14:50;6.50;99.90
6822;DHT22;3449;48.728;8.968;2023-04-25T02:17:17;6.50;99.90
6822;DHT22;3449;48.728;8.968;2023-04-25T02:19:44;6.50;99.90
6822;DHT22;3449;48.728;8.968;2023-04-25T02:22:11;6.50;99.90
6822;DHT22;3449;48.728;8.968;2023-04-25T02:24:38;6.50;99.90
6822;DHT22;3449;48.728;8.968;2023-04-25T02:27:05;6.40;99.90
6822;DHT22;3449;48.728;8.968;2023-04-25T02:29:31;6.40;99.90
6822;DHT22;3449;48.728;8.968;2023-04-25T02:32:00;6.40;99.90
6822;DHT22;3449;48.728;8.968;2023-04-25T02:34:26;6.40;99.90
6822;DHT22;3449;48.728;8.968;2023-04-25T02:36:53;6.40;99.90
6822;DHT22;3449;48.728;8.968;2023-04-25T02:39:20;6.50;99.90
6822;DHT22;3449;48.728;8.968;2023-04-25T02:41:47;6.50;99.90
6822;DHT22;3449;48.728;8.968;2023-04-25T02:44:14;6.40;99.90
6822;DHT22;3449;48.728;8.968;2023-04-25T02:46:41;6.40;99.90
6822;DHT22;3449;48.728;8.968;2023-04-25T02:49:09;6.40;99.90
6822;DHT22;3449;48.728;8.968;2023-04-25T02:51:36;6.40;99.90
6822;DHT22;3449;48.728;8.968;2023-04-25T02:54:03;6.40;99.90
6822;DHT22;3449;48.728;8.968;2023-04-25T02:56:30;6.40;99.90
6822;DHT22;3449;48.728;8.968;2023-04-25T02:58:57;6.40;99.90
6822;DHT22;3449;48.728;8.968;2023-04-25T03:01:24;6.40;99.90
6822;DHT22;3449;48.728;8.968;2023-04-25T03:03:51;6.40;99.90
6822;DHT22;3449;48.728;8.968;2023-04-25T03:06:19;6.40;99.90
6822;DHT22;3449;48.728;8.968;2023-04-25T03:08:46;6.40;99.90
6822;DHT22;3449;48.728;8.968;2023-04-25T03:11:12;6.40;99.90
6822;DHT22;3449;48.728;8.968;2023-04-25T03:13:39;6.50;99.90
6822;DHT22;3449;48.728;8.968;2023-04-25T03:16:06;6.50;99.90
6822;DHT22;3449;48.728;8.968;2023-04-25T03:18:33;6.50;99.90
6822;DHT22;3449;48.728;8.968;2023-04-25T03:21:00;6.50;99.90
6822;DHT22;3449;48.728;8.968;2023-04-25T03:23:28;6.40;99.90
6822;DHT22;3449;48.728;8.968;2023-04-25T03:25:55;6.40;99.90
6822;DHT22;3449;48.728;8.968;2023-04-25T03:28:22;6.40;99.90
6822;DHT22;3449;48.728;8.968;2023-04-25T03:30:49;6.40;99.90
6822;DHT22;3449;48.728;8.968;2023-04-25T03:33:16;6.30;99.90
6822;DHT22;3449;48.728;8.968;2023-04-25T03:35:43;6.30;99.90
6822;DHT22;3449;48.728;8.968;2023-04-25T03:38:10;6.30;99.90
6822;DHT22;3449;48.728;8.968;2023-04-25T03:40:38;6.30;99.90
6822;DHT22;3449;48.728;8.968;2023-04-25T03:43:05;6.30;99.90
6822;DHT22;3449;48.728;8.968;2023-04-25T03:45:31;6.30;99.90
6822;DHT22;3449;48.728;8.968;2023-04-25T03:47:58;6.30;99.90
6822;DHT22;3449;48.728;8.968;2023-04-25T03:50:25;6.30;99.90
6822;DHT22;3449;48.728;8.968;2023-04-25T03:52:52;6.30;99.90
6822;DHT22;3449;48.728;8.968;2023-04-25T03:55:19;6.30;99.90
6822;DHT22;3449;48.728;8.968;2023-04-25T03:57:47;6.20;99.90
6822;DHT22;3449;48.728;8.968;2023-04-25T04:00:15;6.30;99.90
6822;DHT22;3449;48.728;8.968;2023-04-25T04:02:42;6.20;99.90
6822;DHT22;3449;48.728;8.968;2023-04-25T04:05:09;6.20;99.90
6822;DHT22;3449;48.728;8.968;2023-04-25T04:07:36;6.10;99.90
6822;DHT22;3449;48.728;8.968;2023-04-25T04:10:06;6.10;99.90
6822;DHT22;3449;48.728;8.968;2023-04-25T04:12:33;6.10;99.90
6822;DHT22;3449;48.728;8.968;2023-04-25T04:15:01;6.00;99.90
6822;DHT22;3449;48.728;8.968;2023-04-25T04:17:29;6.00;99.90
6822;DHT22;3449;48.728;8.968;2023-04-25T04:19:56;5.90;99.90
6822;DHT22;3449;48.728;8.968;2023-04-25T04:22:23;5.90;99.90
6822;DHT22;3449;48.728;8.968;2023-04-25T04:24:50;5.90;99.90
6822;DHT22;3449;48.728;8.968;2023-04-25T04:27:17;5.90;99.90
6822;DHT22;3449;48.728;8.968;2023-04-25T04:29:45;5.90;99.90
6822;DHT22;3449;48.728;8.968;2023-04-25T04:32:14;5.90;99.90
6822;DHT22;3449;48.728;8.968;2023-04-25T04:34:41;5.90;99.90
6822;DHT22;3449;48.728;8.968;2023-04-25T04:37:08;5.80;99.90
6822;DHT22;3449;48.728;8.968;2023-04-25T04:39:35;5.80;99.90
6822;DHT22;3449;48.728;8.968;2023-04-25T04:42:02;5.90;99.90
6822;DHT22;3449;48.728;8.968;2023-04-25T04:44:30;5.90;99.90
6822;DHT22;3449;48.728;8.968;2023-04-25T04:47:00;5.90;99.90
6822;DHT22;3449;48.728;8.968;2023-04-25T04:49:28;6.00;99.90
6822;DHT22;3449;48.728;8.968;2023-04-25T04:51:55;5.90;99.90
6822;DHT22;3449;48.728;8.968;2023-04-25T04:54:22;6.00;99.90
6822;DHT22;3449;48.728;8.968;2023-04-25T04:56:49;6.10;99.90
6822;DHT22;3449;48.728;8.968;2023-04-25T04:59:16;6.20;99.90
6822;DHT22;3449;48.728;8.968;2023-04-25T05:01:43;6.20;99.90
6822;DHT22;3449;48.728;8.968;2023-04-25T05:04:11;6.20;99.90
6822;DHT22;3449;48.728;8.968;2023-04-25T05:06:39;6.30;99.90
6822;DHT22;3449;48.728;8.968;2023-04-25T05:09:06;6.30;99.90
6822;DHT22;3449;48.728;8.968;2023-04-25T05:11:33;6.40;99.90
6822;DHT22;3449;48.728;8.968;2023-04-25T05:14:00;6.40;99.90
6822;DHT22;3449;48.728;8.968;2023-04-25T05:16:27;6.40;99.90
6822;DHT22;3449;48.728;8.968;2023-04-25T05:18:54;6.40;99.90
6822;DHT22;3449;48.728;8.968;2023-04-25T05:21:21;6.40;99.90
6822;DHT22;3449;48.728;8.968;2023-04-25T05:23:49;6.40;99.90
6822;DHT22;3449;48.728;8.968;2023-04-25T05:26:16;6.40;99.90
6822;DHT22;3449;48.728;8.968;2023-04-25T05:28:43;6.40;99.90
6822;DHT22;3449;48.728;8.968;2023-04-25T05:31:10;6.40;99.90
6822;DHT22;3449;48.728;8.968;2023-04-25T05:33:37;6.50;99.90
6822;DHT22;3449;48.728;8.968;2023-04-25T05:36:05;6.50;99.90
6822;DHT22;3449;48.728;8.968;2023-04-25T05:38:32;6.50;99.90
6822;DHT22;3449;48.728;8.968;2023-04-25T05:41:00;6.60;99.90
6822;DHT22;3449;48.728;8.968;2023-04-25T05:43:27;6.60;99.90
6822;DHT22;3449;48.728;8.968;2023-04-25T05:45:54;6.60;99.90
6822;DHT22;3449;48.728;8.968;2023-04-25T05:48:20;6.60;99.90
6822;DHT22;3449;48.728;8.968;2023-04-25T05:50:47;6.60;99.90
6822;DHT22;3449;48.728;8.968;2023-04-25T05:53:14;6.50;99.90
6822;DHT22;3449;48.728;8.968;2023-04-25T05:55:41;6.50;99.90
6822;DHT22;3449;48.728;8.968;2023-04-25T05:58:09;6.60;99.90
6822;DHT22;3449;48.728;8.968;2023-04-25T06:00:36;6.60;99.90
6822;DHT22;3449;48.728;8.968;2023-04-25T06:03:03;6.60;99.90
6822;DHT22;3449;48.728;8.968;2023-04-25T06:05:30;6.70;99.90
6822;DHT22;3449;48.728;8.968;2023-04-25T06:07:57;6.70;99.90
6822;DHT22;3449;48.728;8.968;2023-04-25T06:10:24;6.70;99.90
6822;DHT22;3449;48.728;8.968;2023-04-25T06:12:51;6.70;99.90
6822;DHT22;3449;48.728;8.968;2023-04-25T06:15:19;6.60;99.90
6822;DHT22;3449;48.728;8.968;2023-04-25T06:17:46;6.60;99.90
6822;DHT22;3449;48.728;8.968;2023-04-25T06:20:14;6.60;99.90
6822;DHT22;3449;48.728;8.968;2023-04-25T06:22:41;6.60;99.90
6822;DHT22;3449;48.728;8.968;2023-04-25T06:25:08;6.60;99.90
6822;DHT22;3449;48.728;8.968;2023-04-25T06:27:35;6.60;99.90
6822;DHT22;3449;48.728;8.968;2023-04-25T06:30:02;6.60;99.90
6822;DHT22;3449;48.728;8.968;2023-04-25T06:32:31;6.70;99.90
6822;DHT22;3449;48.728;8.968;2023-04-25T06:34:59;6.70;99.90
6822;DHT22;3449;48.728;8.968;2023-04-25T06:37:26;6.70;99.90
6822;DHT22;3449;48.728;8.968;2023-04-25T06:39:53;6.70;99.90
6822;DHT22;3449;48.728;8.968;2023-04-25T06:42:20;6.60;99.90
6822;DHT22;3449;48.728;8.968;2023-04-25T06:44:47;6.60;99.90
6822;DHT22;3449;48.728;8.968;2023-04-25T06:47:14;6.70;99.90
6822;DHT22;3449;48.728;8.968;2023-04-25T06:49:42;6.60;99.90
6822;DHT22;3449;48.728;8.968;2023-04-25T06:52:09;6.70;99.90
6822;DHT22;3449;48.728;8.968;2023-04-25T06:54:36;6.70;99.90
6822;DHT22;3449;48.728;8.968;2023-04-25T06:57:03;6.70;99.90
6822;DHT22;3449;48.728;8.968;2023-04-25T06:59:30;6.70;99.90
6822;DHT22;3449;48.728;8.968;2023-04-25T07:01:56;6.70;99.90
6822;DHT22;3449;48.728;8.968;2023-04-25T07:04:23;6.60;99.90
6822;DHT22;3449;48.728;8.968;2023-04-25T07:06:52;6.60;99.90
6822;DHT22;3449;48.728;8.968;2023-04-25T07:09:18;6.60;99.90
6822;DHT22;3449;48.728;8.968;2023-04-25T07:11:46;6.60;99.90
6822;DHT22;3449;48.728;8.968;2023-04-25T07:14:12;6.60;99.90
6822;DHT22;3449;48.728;8.968;2023-04-25T07:16:39;6.60;99.90
6822;DHT22;3449;48.728;8.968;2023-04-25T07:19:07;6.60;99.90
6822;DHT22;3449;48.728;8.968;2023-04-25T07:21:34;6.50;99.90
6822;DHT22;3449;48.728;8.968;2023-04-25T07:24:03;6.50;99.90
6822;DHT22;3449;48.728;8.968;2023-04-25T07:26:30;6.50;99.90
6822;DHT22;3449;48.728;8.968;2023-04-25T07:28:57;6.50;99.90
6822;DHT22;3449;48.728;8.968;2023-04-25T07:31:24;6.60;99.90
6822;DHT22;3449;48.728;8.968;2023-04-25T07:33:51;6.50;99.90
6822;DHT22;3449;48.728;8.968;2023-04-25T07:36:18;6.50;99.90
6822;DHT22;3449;48.728;8.968;2023-04-25T07:38:45;6.50;99.90
6822;DHT22;3449;48.728;8.968;2023-04-25T07:41:13;6.50;99.90
6822;DHT22;3449;48.728;8.968;2023-04-25T07:43:40;6.50;99.90
6822;DHT22;3449;48.728;8.968;2023-04-25T07:46:07;6.50;99.90
6822;DHT22;3449;48.728;8.968;2023-04-25T07:48:34;6.60;99.90
6822;DHT22;3449;48.728;8.968;2023-04-25T07:51:00;6.60;99.90
6822;DHT22;3449;48.728;8.968;2023-04-25T07:53:29;6.70;99.90
6822;DHT22;3449;48.728;8.968;2023-04-25T07:55:57;6.60;99.90
6822;DHT22;3449;48.728;8.968;2023-04-25T07:58:25;6.60;99.90
6822;DHT22;3449;48.728;8.968;2023-04-25T08:00:52;6.50;99.90
6822;DHT22;3449;48.728;8.968;2023-04-25T08:03:19;6.40;99.90
6822;DHT22;3449;48.728;8.968;2023-04-25T08:05:46;6.40;99.90
6822;DHT22;3449;48.728;8.968;2023-04-25T08:08:13;6.40;99.90
6822;DHT22;3449;48.728;8.968;2023-04-25T08:10:41;6.50;99.90
6822;DHT22;3449;48.728;8.968;2023-04-25T08:13:08;6.50;99.90
6822;DHT22;3449;48.728;8.968;2023-04-25T08:15:36;6.50;99.90
6822;DHT22;3449;48.728;8.968;2023-04-25T08:18:03;6.50;99.90
6822;DHT22;3449;48.728;8.968;2023-04-25T08:20:30;6.50;99.90
6822;DHT22;3449;48.728;8.968;2023-04-25T08:22:57;6.50;99.90
6822;DHT22;3449;48.728;8.968;2023-04-25T08:25:24;6.50;99.90
6822;DHT22;3449;48.728;8.968;2023-04-25T08:27:51;6.60;99.90
6822;DHT22;3449;48.728;8.968;2023-04-25T08:30:18;6.60;99.90
6822;DHT22;3449;48.728;8.968;2023-04-25T08:32:46;6.60;99.90
6822;DHT22;3449;48.728;8.968;2023-04-25T08:35:13;6.60;99.90
6822;DHT22;3449;48.728;8.968;2023-04-25T08:37:41;6.60;99.90
6822;DHT22;3449;48.728;8.968;2023-04-25T08:40:14;6.70;99.90
6822;DHT22;3449;48.728;8.968;2023-04-25T08:42:42;6.70;99.90
6822;DHT22;3449;48.728;8.968;2023-04-25T08:45:10;6.70;99.90
6822;DHT22;3449;48.728;8.968;2023-04-25T08:47:38;6.70;99.90
6822;DHT22;3449;48.728;8.968;2023-04-25T08:50:07;6.60;99.90
6822;DHT22;3449;48.728;8.968;2023-04-25T08:52:37;6.60;99.90
6822;DHT22;3449;48.728;8.968;2023-04-25T08:55:07;6.60;99.90
6822;DHT22;3449;48.728;8.968;2023-04-25T08:57:37;6.60;99.90
6822;DHT22;3449;48.728;8.968;2023-04-25T09:00:05;6.60;99.90
6822;DHT22;3449;48.728;8.968;2023-04-25T09:02:33;6.60;99.90
6822;DHT22;3449;48.728;8.968;2023-04-25T09:05:01;6.60;99.90
6822;DHT22;3449;48.728;8.968;2023-04-25T09:07:31;6.60;99.90
6822;DHT22;3449;48.728;8.968;2023-04-25T09:09:58;6.50;99.90
6822;DHT22;3449;48.728;8.968;2023-04-25T09:12:29;6.50;99.90
6822;DHT22;3449;48.728;8.968;2023-04-25T09:15:07;6.40;99.90
6822;DHT22;3449;48.728;8.968;2023-04-25T09:17:34;6.40;99.90
6822;DHT22;3449;48.728;8.968;2023-04-25T09:20:07;6.40;99.90
6822;DHT22;3449;48.728;8.968;2023-04-25T09:22:36;6.30;99.90
6822;DHT22;3449;48.728;8.968;2023-04-25T09:25:07;6.30;99.90
6822;DHT22;3449;48.728;8.968;2023-04-25T09:27:34;6.30;99.90
6822;DHT22;3449;48.728;8.968;2023-04-25T09:30:02;6.20;99.90
6822;DHT22;3449;48.728;8.968;2023-04-25T09:32:29;6.20;99.90
6822;DHT22;3449;48.728;8.968;2023-04-25T09:34:56;6.20;99.90
6822;DHT22;3449;48.728;8.968;2023-04-25T09:37:25;6.10;99.90
6822;DHT22;3449;48.728;8.968;2023-04-25T09:39:55;6.10;99.90
6822;DHT22;3449;48.728;8.968;2023-04-25T09:42:23;6.10;99.90
6822;DHT22;3449;48.728;8.968;2023-04-25T09:44:52;6.10;99.90
6822;DHT22;3449;48.728;8.968;2023-04-25T09:47:20;6.00;99.90
6822;DHT22;3449;48.728;8.968;2023-04-25T09:49:49;6.10;99.90
6822;DHT22;3449;48.728;8.968;2023-04-25T09:52:17;6.10;99.90
6822;DHT22;3449;48.728;8.968;2023-04-25T09:54:45;6.10;99.90
6822;DHT22;3449;48.728;8.968;2023-04-25T09:57:14;6.20;99.90
6822;DHT22;3449;48.728;8.968;2023-04-25T09:59:45;6.20;99.90
6822;DHT22;3449;48.728;8.968;2023-04-25T10:02:14;6.20;99.90
6822;DHT22;3449;48.728;8.968;2023-04-25T10:04:42;6.30;99.90
6822;DHT22;3449;48.728;8.968;2023-04-25T10:07:12;6.30;99.90
6822;DHT22;3449;48.728;8.968;2023-04-25T10:09:40;6.30;99.90
6822;DHT22;3449;48.728;8.968;2023-04-25T10:12:07;6.20;99.90
6822;DHT22;3449;48.728;8.968;2023-04-25T10:14:36;6.10;99.90
6822;DHT22;3449;48.728;8.968;2023-04-25T10:17:03;6.30;99.90
6822;DHT22;3449;48.728;8.968;2023-04-25T10:19:30;6.30;99.90
6822;DHT22;3449;48.728;8.968;2023-04-25T10:22:04;6.40;99.90
6822;DHT22;3449;48.728;8.968;2023-04-25T10:24:32;6.40;99.90
6822;DHT22;3449;48.728;8.968;2023-04-25T10:27:01;6.40;99.90
6822;DHT22;3449;48.728;8.968;2023-04-25T10:29:28;6.30;99.90
6822;DHT22;3449;48.728;8.968;2023-04-25T10:31:57;6.30;99.90
6822;DHT22;3449;48.728;8.968;2023-04-25T10:34:37;6.30;99.90
6822;DHT22;3449;48.728;8.968;2023-04-25T10:37:05;6.40;99.90
6822;DHT22;3449;48.728;8.968;2023-04-25T10:39:34;6.30;99.90
6822;DHT22;3449;48.728;8.968;2023-04-25T10:42:02;6.30;99.90
6822;DHT22;3449;48.728;8.968;2023-04-25T10:44:30;6.40;99.90
6822;DHT22;3449;48.728;8.968;2023-04-25T10:47:00;6.40;99.90
6822;DHT22;3449;48.728;8.968;2023-04-25T10:49:29;6.50;99.90
6822;DHT22;3449;48.728;8.968;2023-04-25T10:52:17;6.50;99.90
6822;DHT22;3449;48.728;8.968;2023-04-25T10:54:48;6.50;99.90
6822;DHT22;3449;48.728;8.968;2023-04-25T10:57:36;6.60;99.90
6822;DHT22;3449;48.728;8.968;2023-04-25T11:00:10;6.70;99.90
6822;DHT22;3449;48.728;8.968;2023-04-25T11:02:40;6.80;99.90
6822;DHT22;3449;48.728;8.968;2023-04-25T11:05:08;6.80;99.90
6822;DHT22;3449;48.728;8.968;2023-04-25T11:07:39;6.90;99.90
6822;DHT22;3449;48.728;8.968;2023-04-25T11:10:10;6.90;99.90
6822;DHT22;3449;48.728;8.968;2023-04-25T11:12:37;6.90;99.90
6822;DHT22;3449;48.728;8.968;2023-04-25T11:15:06;6.80;99.90
6822;DHT22;3449;48.728;8.968;2023-04-25T11:17:33;6.70;99.90
6822;DHT22;3449;48.728;8.968;2023-04-25T11:20:03;6.70;99.90
6822;DHT22;3449;48.728;8.968;2023-04-25T11:22:34;6.50;99.90
6822;DHT22;3449;48.728;8.968;2023-04-25T11:25:05;6.50;99.90
6822;DHT22;3449;48.728;8.968;2023-04-25T11:27:32;6.60;99.90
6822;DHT22;3449;48.728;8.968;2023-04-25T11:30:10;6.60;99.90
6822;DHT22;3449;48.728;8.968;2023-04-25T11:32:38;6.70;99.90
6822;DHT22;3449;48.728;8.968;2023-04-25T11:35:07;6.70;99.90
6822;DHT22;3449;48.728;8.968;2023-04-25T11:37:34;6.70;99.90
6822;DHT22;3449;48.728;8.968;2023-04-25T11:40:03;6.80;99.90
6822;DHT22;3449;48.728;8.968;2023-04-25T11:42:32;6.80;99.90
6822;DHT22;3449;48.728;8.968;2023-04-25T11:44:59;6.70;99.90
6822;DHT22;3449;48.728;8.968;2023-04-25T11:47:30;6.70;99.90
6822;DHT22;3449;48.728;8.968;2023-04-25T11:49:58;6.80;99.90
6822;DHT22;3449;48.728;8.968;2023-04-25T11:52:37;6.80;99.90
6822;DHT22;3449;48.728;8.968;2023-04-25T11:55:05;6.90;99.90
6822;DHT22;3449;48.728;8.968;2023-04-25T11:57:33;7.00;99.90
6822;DHT22;3449;48.728;8.968;2023-04-25T12:00:09;7.10;99.90
6822;DHT22;3449;48.728;8.968;2023-04-25T12:02:40;7.20;99.90
6822;DHT22;3449;48.728;8.968;2023-04-25T12:05:07;7.20;99.90
6822;DHT22;3449;48.728;8.968;2023-04-25T12:07:36;7.30;99.90
6822;DHT22;3449;48.728;8.968;2023-04-25T12:10:08;7.30;99.90
6822;DHT22;3449;48.728;8.968;2023-04-25T12:12:36;7.30;99.90
6822;DHT22;3449;48.728;8.968;2023-04-25T12:15:11;7.40;99.90
6822;DHT22;3449;48.728;8.968;2023-04-25T12:17:40;7.30;99.90
6822;DHT22;3449;48.728;8.968;2023-04-25T12:20:09;7.30;99.90
6822;DHT22;3449;48.728;8.968;2023-04-25T12:22:40;7.20;99.90
6822;DHT22;3449;48.728;8.968;2023-04-25T12:25:10;7.10;99.90
6822;DHT22;3449;48.728;8.968;2023-04-25T12:27:40;7.20;99.90
6822;DHT22;3449;48.728;8.968;2023-04-25T12:30:09;7.30;99.90
6822;DHT22;3449;48.728;8.968;2023-04-25T12:32:37;7.40;99.90
6822;DHT22;3449;48.728;8.968;2023-04-25T12:35:05;7.60;99.90
6822;DHT22;3449;48.728;8.968;2023-04-25T12:37:32;7.60;99.90
6822;DHT22;3449;48.728;8.968;2023-04-25T12:40:00;7.60;99.90
6822;DHT22;3449;48.728;8.968;2023-04-25T12:42:28;7.60;99.90
6822;DHT22;3449;48.728;8.968;2023-04-25T12:44:55;7.70;99.90
6822;DHT22;3449;48.728;8.968;2023-04-25T12:47:22;7.80;99.90
6822;DHT22;3449;48.728;8.968;2023-04-25T12:49:49;7.90;99.90
6822;DHT22;3449;48.728;8.968;2023-04-25T12:52:16;7.90;99.90
6822;DHT22;3449;48.728;8.968;2023-04-25T12:54:42;8.10;99.90
6822;DHT22;3449;48.728;8.968;2023-04-25T12:57:11;8.20;99.90
6822;DHT22;3449;48.728;8.968;2023-04-25T12:59:37;8.20;99.90
6822;DHT22;3449;48.728;8.968;2023-04-25T13:02:04;8.20;99.90
6822;DHT22;3449;48.728;8.968;2023-04-25T13:04:31;8.20;99.90
6822;DHT22;3449;48.728;8.968;2023-04-25T13:06:58;8.40;99.90
6822;DHT22;3449;48.728;8.968;2023-04-25T13:09:25;8.60;99.90
6822;DHT22;3449;48.728;8.968;2023-04-25T13:11:52;8.60;99.90
6822;DHT22;3449;48.728;8.968;2023-04-25T13:14:20;8.70;99.90
6822;DHT22;3449;48.728;8.968;2023-04-25T13:16:47;8.80;99.90
6822;DHT22;3449;48.728;8.968;2023-04-25T13:19:14;8.80;99.90
6822;DHT22;3449;48.728;8.968;2023-04-25T13:21:41;8.90;99.90
6822;DHT22;3449;48.728;8.968;2023-04-25T13:24:08;9.00;99.90
6822;DHT22;3449;48.728;8.968;2023-04-25T13:26:34;9.20;99.90
6822;DHT22;3449;48.728;8.968;2023-04-25T13:29:01;9.30;99.90
6822;DHT22;3449;48.728;8.968;2023-04-25T13:31:31;9.40;99.90
6822;DHT22;3449;48.728;8.968;2023-04-25T13:33:57;9.50;99.90
6822;DHT22;3449;48.728;8.968;2023-04-25T13:36:25;9.90;99.90
6822;DHT22;3449;48.728;8.968;2023-04-25T13:38:53;10.70;99.90
6822;DHT22;3449;48.728;8.968;2023-04-25T13:41:20;11.00;99.90
6822;DHT22;3449;48.728;8.968;2023-04-25T13:43:47;11.00;99.90
6822;DHT22;3449;48.728;8.968;2023-04-25T13:46:14;10.60;99.90
6822;DHT22;3449;48.728;8.968;2023-04-25T13:48:43;10.70;99.90
6822;DHT22;3449;48.728;8.968;2023-04-25T13:51:13;10.60;99.90
6822;DHT22;3449;48.728;8.968;2023-04-25T13:53:40;10.30;99.90
6822;DHT22;3449;48.728;8.968;2023-04-25T13:56:07;10.10;99.90
6822;DHT22;3449;48.728;8.968;2023-04-25T13:58:35;10.10;99.90
6822;DHT22;3449;48.728;8.968;2023-04-25T14:01:02;10.20;99.90
6822;DHT22;3449;48.728;8.968;2023-04-25T14:03:30;10.30;99.90
6822;DHT22;3449;48.728;8.968;2023-04-25T14:05:58;10.40;99.90
6822;DHT22;3449;48.728;8.968;2023-04-25T14:08:26;10.30;99.90
6822;DHT22;3449;48.728;8.968;2023-04-25T14:10:54;10.30;99.90
6822;DHT22;3449;48.728;8.968;2023-04-25T14:13:21;10.40;99.90
6822;DHT22;3449;48.728;8.968;2023-04-25T14:15:49;10.30;99.90
6822;DHT22;3449;48.728;8.968;2023-04-25T14:18:17;10.30;99.90
6822;DHT22;3449;48.728;8.968;2023-04-25T14:20:44;10.30;99.90
6822;DHT22;3449;48.728;8.968;2023-04-25T14:23:12;10.20;99.90
6822;DHT22;3449;48.728;8.968;2023-04-25T14:25:39;10.40;99.90
6822;DHT22;3449;48.728;8.968;2023-04-25T14:28:07;10.50;99.90
6822;DHT22;3449;48.728;8.968;2023-04-25T14:30:34;10.60;99.90
6822;DHT22;3449;48.728;8.968;2023-04-25T14:33:01;10.90;99.90
6822;DHT22;3449;48.728;8.968;2023-04-25T14:35:28;11.20;99.90
6822;DHT22;3449;48.728;8.968;2023-04-25T14:37:54;11.10;99.90
6822;DHT22;3449;48.728;8.968;2023-04-25T14:40:23;10.90;99.90
6822;DHT22;3449;48.728;8.968;2023-04-25T14:42:50;11.00;99.90
6822;DHT22;3449;48.728;8.968;2023-04-25T14:45:17;11.30;99.90
6822;DHT22;3449;48.728;8.968;2023-04-25T14:47:44;11.70;99.90
6822;DHT22;3449;48.728;8.968;2023-04-25T14:50:11;11.90;99.90
6822;DHT22;3449;48.728;8.968;2023-04-25T14:52:38;12.10;99.90
6822;DHT22;3449;48.728;8.968;2023-04-25T14:55:05;12.30;99.90
6822;DHT22;3449;48.728;8.968;2023-04-25T14:57:34;12.50;99.90
6822;DHT22;3449;48.728;8.968;2023-04-25T15:00:02;12.80;99.90
6822;DHT22;3449;48.728;8.968;2023-04-25T15:02:30;13.10;99.90
6822;DHT22;3449;48.728;8.968;2023-04-25T15:04:57;13.20;99.90
6822;DHT22;3449;48.728;8.968;2023-04-25T15:07:25;13.50;99.90
6822;DHT22;3449;48.728;8.968;2023-04-25T15:09:52;13.90;99.90
6822;DHT22;3449;48.728;8.968;2023-04-25T15:12:21;13.60;99.90
6822;DHT22;3449;48.728;8.968;2023-04-25T15:14:49;13.00;99.90
6822;DHT22;3449;48.728;8.968;2023-04-25T15:17:17;12.50;99.90
6822;DHT22;3449;48.728;8.968;2023-04-25T15:19:43;12.30;99.90
6822;DHT22;3449;48.728;8.968;2023-04-25T15:22:10;12.40;99.90
6822;DHT22;3449;48.728;8.968;2023-04-25T15:24:37;12.80;99.90
6822;DHT22;3449;48.728;8.968;2023-04-25T15:27:04;13.40;99.90
6822;DHT22;3449;48.728;8.968;2023-04-25T15:29:31;14.20;99.90
6822;DHT22;3449;48.728;8.968;2023-04-25T15:31:59;14.50;99.90
6822;DHT22;3449;48.728;8.968;2023-04-25T15:34:26;14.30;99.90
6822;DHT22;3449;48.728;8.968;2023-04-25T15:36:53;14.10;99.90
6822;DHT22;3449;48.728;8.968;2023-04-25T15:39:20;13.80;99.90
6822;DHT22;3449;48.728;8.968;2023-04-25T15:41:47;13.60;99.90
6822;DHT22;3449;48.728;8.968;2023-04-25T15:44:14;13.30;99.90
6822;DHT22;3449;48.728;8.968;2023-04-25T15:46:41;13.00;99.90
6822;DHT22;3449;48.728;8.968;2023-04-25T15:49:10;12.70;99.90
6822;DHT22;3449;48.728;8.968;2023-04-25T15:51:37;12.40;99.90
6822;DHT22;3449;48.728;8.968;2023-04-25T15:54:04;12.10;99.90
6822;DHT22;3449;48.728;8.968;2023-04-25T15:56:31;11.80;99.90
6822;DHT22;3449;48.728;8.968;2023-04-25T15:58:58;11.40;99.90
6822;DHT22;3449;48.728;8.968;2023-04-25T16:01:26;11.10;99.90
6822;DHT22;3449;48.728;8.968;2023-04-25T16:03:55;11.10;99.90
6822;DHT22;3449;48.728;8.968;2023-04-25T16:06:24;10.90;99.90
6822;DHT22;3449;48.728;8.968;2023-04-25T16:08:51;10.90;99.90
6822;DHT22;3449;48.728;8.968;2023-04-25T16:11:18;10.80;99.90
6822;DHT22;3449;48.728;8.968;2023-04-25T16:13:45;10.60;99.90
6822;DHT22;3449;48.728;8.968;2023-04-25T16:16:13;10.50;99.90
6822;DHT22;3449;48.728;8.968;2023-04-25T16:18:39;10.60;99.90